createdAt,value
2023-07-15T00:00:12.945Z,15.17
2023-07-15T00:03:54.692Z,15.15
2023-07-15T00:07:02.790Z,15.14
2023-07-15T00:10:29.962Z,15.12
2023-07-15T00:13:36.137Z,15.11
2023-07-15T00:16:45.100Z,15.12
2023-07-15T00:20:12.928Z,15.11
2023-07-15T00:23:41.392Z,15.07
2023-07-15T00:27:08.496Z,15.04
2023-07-15T00:30:18.175Z,15.00
2023-07-15T00:33:45.288Z,14.99
2023-07-15T00:37:12.365Z,14.97
2023-07-15T00:40:41.068Z,14.91
2023-07-15T00:44:07.498Z,14.90
2023-07-15T00:47:48.393Z,14.90
2023-07-15T00:51:15.480Z,14.89
2023-07-15T00:54:45.541Z,14.86
2023-07-15T00:58:16.243Z,14.85
2023-07-15T01:04:24.158Z,14.93
2023-07-15T01:07:36.567Z,14.92
2023-07-15T01:11:07.729Z,14.93
2023-07-15T01:14:34.746Z,14.96
2023-07-15T01:17:44.945Z,15.01
2023-07-15T01:21:11.866Z,15.04
2023-07-15T01:24:39.806Z,15.04
2023-07-15T01:28:09.493Z,15.05
2023-07-15T01:31:18.002Z,15.05
2023-07-15T01:34:45.154Z,15.02
2023-07-15T01:37:37.916Z,15.04
2023-07-15T01:41:05.916Z,15.08
2023-07-15T01:44:33.735Z,15.11
2023-07-15T01:48:05.692Z,15.12
2023-07-15T01:51:33.422Z,15.16
2023-07-15T01:54:38.605Z,15.20
2023-07-15T01:58:09.286Z,15.25
2023-07-15T02:01:45.424Z,15.25
2023-07-15T02:04:55.431Z,15.29
2023-07-15T02:07:48.810Z,15.31
2023-07-15T02:11:00.534Z,15.32
2023-07-15T02:13:49.096Z,15.30
2023-07-15T02:17:16.490Z,15.29
2023-07-15T02:20:50.132Z,15.27
2023-07-15T02:24:02.448Z,15.26
2023-07-15T02:26:47.219Z,15.25
2023-07-15T02:30:14.440Z,15.25
2023-07-15T02:33:45.779Z,15.22
2023-07-15T02:36:54.777Z,15.22
2023-07-15T02:40:30.024Z,15.25
2023-07-15T02:43:59.426Z,15.29
2023-07-15T02:47:26.317Z,15.32
2023-07-15T02:50:22.566Z,15.35
2023-07-15T02:53:52.441Z,15.37
2023-07-15T02:57:04.313Z,15.33
2023-07-15T03:00:04.825Z,15.33
2023-07-15T03:03:14.870Z,15.31
2023-07-15T03:06:21.541Z,15.29
2023-07-15T03:09:24.371Z,15.30
2023-07-15T03:11:52.339Z,15.30
2023-07-15T03:15:00.573Z,15.31
2023-07-15T03:17:51.473Z,15.29
2023-07-15T03:20:32.560Z,15.28
2023-07-15T03:23:35.096Z,15.31
2023-07-15T03:26:43.281Z,15.29
2023-07-15T03:29:47.289Z,15.29
2023-07-15T03:32:31.449Z,15.28
2023-07-15T03:35:31.437Z,15.30
2023-07-15T03:38:22.196Z,15.30
2023-07-15T03:41:30.030Z,15.28
2023-07-15T03:44:18.124Z,15.26
2023-07-15T03:47:47.322Z,15.29
2023-07-15T03:50:41.249Z,15.32
2023-07-15T03:53:28.947Z,15.31
2023-07-15T03:56:38.584Z,15.30
2023-07-15T03:59:45.526Z,15.27
2023-07-15T04:02:35.384Z,15.26
2023-07-15T04:05:46.288Z,15.25
2023-07-15T04:08:21.667Z,15.29
2023-07-15T04:11:18.171Z,15.36
2023-07-15T04:14:07.252Z,15.42
2023-07-15T04:17:16.605Z,15.49
2023-07-15T04:20:21.765Z,15.58
2023-07-15T04:22:51.452Z,15.70
2023-07-15T04:25:40.700Z,15.81
2023-07-15T04:28:21.424Z,15.87
2023-07-15T04:31:17.720Z,15.93
2023-07-15T04:34:44.540Z,16.00
2023-07-15T04:37:48.676Z,16.06
2023-07-15T04:41:15.591Z,16.08
2023-07-15T04:44:17.261Z,16.13
2023-07-15T04:47:44.212Z,16.21
2023-07-15T04:51:11.486Z,16.28
2023-07-15T04:54:19.784Z,16.33
2023-07-15T04:57:16.511Z,16.39
2023-07-15T05:00:28.679Z,16.43
2023-07-15T05:03:03.412Z,16.52
2023-07-15T05:05:55.635Z,16.60
2023-07-15T05:09:22.835Z,16.70
2023-07-15T05:11:51.057Z,16.79
2023-07-15T05:15:04.068Z,16.90
2023-07-15T05:18:23.101Z,17.02
2023-07-15T05:21:32.851Z,17.14
2023-07-15T05:24:05.990Z,17.28
2023-07-15T05:27:28.995Z,17.40
2023-07-15T05:30:18.863Z,17.57
2023-07-15T05:33:26.401Z,17.74
2023-07-15T05:36:53.339Z,17.91
2023-07-15T05:40:20.693Z,18.10
2023-07-15T05:43:47.706Z,18.28
2023-07-15T05:46:57.333Z,18.48
2023-07-15T05:50:31.024Z,18.67
2023-07-15T05:53:58.888Z,18.89
2023-07-15T05:57:26.805Z,19.08
2023-07-15T06:00:54.218Z,19.29
2023-07-15T06:04:21.058Z,19.48
2023-07-15T06:07:29.683Z,19.69
2023-07-15T06:10:56.679Z,19.85
2023-07-15T06:14:10.689Z,20.08
2023-07-15T06:17:37.562Z,20.29
2023-07-15T06:21:20.567Z,20.55
2023-07-15T06:24:27.755Z,20.84
2023-07-15T06:27:36.082Z,21.08
2023-07-15T06:30:53.165Z,21.31
2023-07-15T06:34:05.331Z,21.56
2023-07-15T06:37:13.624Z,21.78
2023-07-15T06:40:26.018Z,22.00
2023-07-15T06:43:52.986Z,22.15
2023-07-15T06:46:45.931Z,22.35
2023-07-15T06:49:36.471Z,22.43
2023-07-15T06:52:48.146Z,22.56
2023-07-15T06:55:42.420Z,22.71
2023-07-15T06:59:09.746Z,22.84
2023-07-15T07:02:38.786Z,22.96
2023-07-15T07:05:26.465Z,23.06
2023-07-15T07:08:53.433Z,23.15
2023-07-15T07:12:26.302Z,23.33
2023-07-15T07:15:33.881Z,23.54
2023-07-15T07:19:01.022Z,23.70
2023-07-15T07:22:27.972Z,23.87
2023-07-15T07:25:55.660Z,24.01
2023-07-15T07:29:32.834Z,24.15
2023-07-15T07:33:00.683Z,24.30
2023-07-15T07:36:28.297Z,24.46
2023-07-15T07:39:27.461Z,24.62
2023-07-15T07:42:43.915Z,24.72
2023-07-15T07:46:12.695Z,24.81
2023-07-15T07:49:39.611Z,24.94
2023-07-15T07:52:57.868Z,25.04
2023-07-15T07:56:24.814Z,25.14
2023-07-15T07:59:35.005Z,25.23
2023-07-15T08:03:01.944Z,25.38
2023-07-15T08:06:30.002Z,25.56
2023-07-15T08:09:59.799Z,25.70
2023-07-15T08:13:29.954Z,25.85
2023-07-15T08:17:33.368Z,25.96
2023-07-15T08:21:54.648Z,26.10
2023-07-15T08:25:41.749Z,26.25
2023-07-15T08:29:29.419Z,26.37
2023-07-15T08:33:17.339Z,26.49
2023-07-15T08:37:04.814Z,26.59
2023-07-15T08:40:51.660Z,26.58
2023-07-15T08:44:40.034Z,26.61
2023-07-15T08:48:26.995Z,26.87
2023-07-15T08:52:15.815Z,27.11
2023-07-15T08:56:05.750Z,27.36
2023-07-15T08:59:54.461Z,27.58
2023-07-15T09:03:21.800Z,27.78
2023-07-15T09:07:10.986Z,27.97
2023-07-15T09:14:52.790Z,28.65
2023-07-15T09:18:37.368Z,28.93
2023-07-15T09:22:35.486Z,29.15
2023-07-15T09:26:35.724Z,29.29
2023-07-15T09:30:29.474Z,29.48
2023-07-15T09:34:46.616Z,29.65
2023-07-15T09:38:36.871Z,29.69
2023-07-15T09:42:22.915Z,29.51
2023-07-15T09:46:14.466Z,29.74
2023-07-15T09:50:05.654Z,29.59
2023-07-15T09:53:55.750Z,29.72
2023-07-15T09:57:46.442Z,29.97
2023-07-15T10:01:37.118Z,30.17
2023-07-15T10:05:28.532Z,30.25
2023-07-15T10:09:16.961Z,30.33
2023-07-15T10:13:05.475Z,30.41
2023-07-15T10:16:56.408Z,30.33
2023-07-15T10:20:44.285Z,30.41
2023-07-15T10:24:34.980Z,30.30
2023-07-15T10:28:26.367Z,30.67
2023-07-15T10:32:20.439Z,30.65
2023-07-15T10:36:25.376Z,30.79
2023-07-15T10:40:18.930Z,30.79
2023-07-15T10:44:15.545Z,30.98
2023-07-15T10:48:04.573Z,31.03
2023-07-15T10:51:55.826Z,31.14
2023-07-15T10:55:44.294Z,31.17
2023-07-15T10:59:32.920Z,31.10
2023-07-15T11:03:27.907Z,31.11
2023-07-15T11:07:13.363Z,31.29
2023-07-15T11:11:13.962Z,31.55
2023-07-15T11:15:05.410Z,31.68
2023-07-15T11:19:01.894Z,31.78
2023-07-15T11:22:49.785Z,31.92
2023-07-15T11:26:49.957Z,31.86
2023-07-15T11:30:40.800Z,31.98
2023-07-15T11:34:30.402Z,32.21
2023-07-15T11:38:13.942Z,32.42
2023-07-15T11:42:12.120Z,32.43
2023-07-15T11:46:00.538Z,32.58
2023-07-15T11:49:51.604Z,32.57
2023-07-15T11:53:44.986Z,32.81
2023-07-15T11:57:39.984Z,32.83
2023-07-15T12:01:27.859Z,32.67
2023-07-15T12:05:17.990Z,32.75
2023-07-15T12:09:05.938Z,33.00
2023-07-15T12:12:55.730Z,33.11
2023-07-15T12:16:43.505Z,33.37
2023-07-15T12:20:35.440Z,33.53
2023-07-15T12:24:26.298Z,33.58
2023-07-15T12:28:14.021Z,33.76
2023-07-15T12:32:02.354Z,33.94
2023-07-15T12:35:56.346Z,34.00
2023-07-15T12:39:44.292Z,33.96
2023-07-15T12:43:11.736Z,33.89
2023-07-15T12:47:06.160Z,33.86
2023-07-15T12:50:55.269Z,34.10
2023-07-15T12:54:43.532Z,34.26
2023-07-15T13:02:26.348Z,34.34
2023-07-15T13:06:14.185Z,34.37
2023-07-15T13:10:06.503Z,34.39
2023-07-15T13:13:54.480Z,34.56
2023-07-15T13:17:44.345Z,34.41
2023-07-15T13:21:35.387Z,34.39
2023-07-15T13:25:23.489Z,34.46
2023-07-15T13:29:27.545Z,34.62
2023-07-15T13:33:15.977Z,34.72
2023-07-15T13:37:03.907Z,34.72
2023-07-15T13:44:37.892Z,34.72
2023-07-15T13:48:26.126Z,34.67
2023-07-15T13:52:26.208Z,34.42
2023-07-15T13:56:14.785Z,34.32
2023-07-15T14:00:06.862Z,34.21
2023-07-15T14:06:50.280Z,34.13
2023-07-15T14:10:39.355Z,34.24
2023-07-15T14:14:28.638Z,34.25
2023-07-15T14:18:17.119Z,34.06
2023-07-15T14:22:15.977Z,34.08
2023-07-15T14:26:08.096Z,34.17
2023-07-15T14:29:59.016Z,34.30
2023-07-15T14:33:46.759Z,34.33
2023-07-15T14:37:42.662Z,34.32
2023-07-15T14:41:30.995Z,34.38
2023-07-15T14:45:18.793Z,34.43
2023-07-15T14:48:52.826Z,34.56
2023-07-15T14:52:41.808Z,34.39
2023-07-15T14:56:31.220Z,34.37
2023-07-15T15:00:18.902Z,34.27
2023-07-15T15:04:07.016Z,34.19
2023-07-15T15:07:56.567Z,34.25
2023-07-15T15:11:46.843Z,34.25
2023-07-15T15:15:35.988Z,34.43
2023-07-15T15:19:24.249Z,34.54
2023-07-15T15:23:12.085Z,34.30
2023-07-15T15:26:43.668Z,34.38
2023-07-15T15:30:37.646Z,34.59
2023-07-15T15:34:27.951Z,34.61
2023-07-15T15:38:19.455Z,34.57
2023-07-15T15:42:08.021Z,34.38
2023-07-15T15:45:56.106Z,34.46
2023-07-15T15:49:05.834Z,34.48
2023-07-15T15:53:01.769Z,34.35
2023-07-15T15:56:57.960Z,34.36
2023-07-15T16:00:46.857Z,34.26
2023-07-15T16:04:39.997Z,34.21
2023-07-15T16:08:27.908Z,34.20
2023-07-15T16:12:18.069Z,34.16
2023-07-15T16:16:06.894Z,33.86
2023-07-15T16:19:54.713Z,33.72
2023-07-15T16:23:24.843Z,33.44
2023-07-15T16:27:13.273Z,33.24
2023-07-15T16:31:04.158Z,33.08
2023-07-15T16:34:53.457Z,32.93
2023-07-15T16:38:41.183Z,32.80
2023-07-15T16:42:32.302Z,32.58
2023-07-15T16:46:21.940Z,32.35
2023-07-15T16:50:10.420Z,32.19
2023-07-15T16:53:58.185Z,32.12
2023-07-15T16:57:46.609Z,31.94
2023-07-15T17:01:38.270Z,31.78
2023-07-15T17:05:26.453Z,31.61
2023-07-15T17:13:09.632Z,31.38
2023-07-15T17:16:57.362Z,31.19
2023-07-15T17:20:53.385Z,31.05
2023-07-15T17:24:43.877Z,30.83
2023-07-15T17:28:32.973Z,30.58
2023-07-15T17:32:21.809Z,30.42
2023-07-15T17:36:19.115Z,30.19
2023-07-15T17:40:07.894Z,29.94
2023-07-15T17:43:56.712Z,29.70
2023-07-15T17:47:50.394Z,29.49
2023-07-15T17:51:38.119Z,29.31
2023-07-15T17:55:28.947Z,29.10
2023-07-15T17:59:20.028Z,28.89
2023-07-15T18:03:07.896Z,28.73
2023-07-15T18:07:03.911Z,28.54
2023-07-15T18:10:52.576Z,28.31
2023-07-15T18:14:41.774Z,28.10
2023-07-15T18:18:32.537Z,27.94
2023-07-15T18:22:24.139Z,27.75
2023-07-15T18:30:03.452Z,27.38
2023-07-15T18:33:53.534Z,27.18
2023-07-15T18:37:42.876Z,26.90
2023-07-15T18:41:30.749Z,26.61
2023-07-15T18:45:18.581Z,26.40
2023-07-15T18:49:08.994Z,26.25
2023-07-15T18:53:00.919Z,26.12
2023-07-15T18:56:48.768Z,25.99
2023-07-15T19:04:28.604Z,25.65
2023-07-15T19:08:16.706Z,25.55
2023-07-15T19:12:04.105Z,25.36
2023-07-15T19:15:51.707Z,25.25
2023-07-15T19:19:42.164Z,25.14
2023-07-15T19:23:30.003Z,24.89
2023-07-15T19:27:18.642Z,24.74
2023-07-15T19:30:46.560Z,24.58
2023-07-15T19:34:36.730Z,24.42
2023-07-15T19:38:23.519Z,24.29
2023-07-15T19:42:11.625Z,24.13
2023-07-15T19:45:58.802Z,23.91
2023-07-15T19:49:49.113Z,23.78
2023-07-15T19:53:35.959Z,23.67
2023-07-15T19:57:31.336Z,23.57
2023-07-15T20:01:21.687Z,23.51
2023-07-15T20:05:18.498Z,23.35
2023-07-15T20:09:05.407Z,23.13
2023-07-15T20:12:53.587Z,22.98
2023-07-15T20:16:46.329Z,22.81
2023-07-15T20:20:33.642Z,22.65
2023-07-15T20:24:00.812Z,22.52
2023-07-15T20:27:49.144Z,22.38
2023-07-15T20:31:38.777Z,22.28
2023-07-15T20:35:25.833Z,22.24
2023-07-15T20:39:13.012Z,22.12
2023-07-15T20:43:00.317Z,22.00
2023-07-15T20:46:32.778Z,21.91
2023-07-15T20:50:00.473Z,21.85
2023-07-15T20:53:27.843Z,21.77
2023-07-15T20:57:13.980Z,21.63
2023-07-15T21:04:45.368Z,21.62
2023-07-15T21:08:32.364Z,21.62
2023-07-15T21:12:19.282Z,21.58
2023-07-15T21:15:46.886Z,21.57
2023-07-15T21:19:21.379Z,21.45
2023-07-15T21:22:48.403Z,21.34
2023-07-15T21:26:15.879Z,21.26
2023-07-15T21:29:43.149Z,21.20
2023-07-15T21:33:17.979Z,21.20
2023-07-15T21:36:30.565Z,21.16
2023-07-15T21:39:51.247Z,21.14
2023-07-15T21:43:18.260Z,21.16
2023-07-15T21:46:41.609Z,21.21
2023-07-15T21:50:28.421Z,21.19
2023-07-15T21:53:39.485Z,21.11
2023-07-15T21:57:06.507Z,21.07
2023-07-15T22:00:21.286Z,21.04
2023-07-15T22:03:28.169Z,20.98
2023-07-15T22:06:55.497Z,20.86
2023-07-15T22:10:23.788Z,20.84
2023-07-15T22:13:36.807Z,20.82
2023-07-15T22:16:45.600Z,20.67
2023-07-15T22:20:13.869Z,20.59
2023-07-15T22:23:31.883Z,20.54
2023-07-15T22:26:59.511Z,20.52
2023-07-15T22:30:26.358Z,20.44
2023-07-15T22:33:54.073Z,20.36
2023-07-15T22:37:40.925Z,20.31
2023-07-15T22:40:58.942Z,20.25
2023-07-15T22:44:26.227Z,20.15
2023-07-15T22:48:12.594Z,19.99
2023-07-15T22:51:26.896Z,19.90
2023-07-15T22:54:54.674Z,19.94
2023-07-15T22:58:02.838Z,19.93
2023-07-15T23:01:30.381Z,19.85
2023-07-15T23:04:58.922Z,19.80
2023-07-15T23:08:27.790Z,19.75
2023-07-15T23:11:55.003Z,19.71
2023-07-15T23:15:25.008Z,19.67
2023-07-15T23:19:01.670Z,19.64
2023-07-15T23:22:15.654Z,19.59
2023-07-15T23:25:43.901Z,19.54
2023-07-15T23:29:30.725Z,19.56
2023-07-15T23:32:38.772Z,19.62
2023-07-15T23:36:06.042Z,19.54
2023-07-15T23:39:52.894Z,19.40
2023-07-15T23:43:06.472Z,19.36
2023-07-15T23:46:22.621Z,19.35
2023-07-15T23:49:37.110Z,19.22
2023-07-15T23:52:49.045Z,19.14
2023-07-15T23:56:16.650Z,19.13
2023-07-15T23:59:46.828Z,19.13
